createdAt,value
2023-04-02T00:05:32.737Z,3.5
2023-04-02T00:21:15.620Z,3.7
2023-04-02T00:36:58.082Z,3.3
2023-04-02T00:52:40.298Z,3.3
2023-04-02T01:08:23.467Z,3.1
2023-04-02T01:24:06.168Z,3
2023-04-02T01:39:49.290Z,2.7
2023-04-02T01:55:32.032Z,2.6
2023-04-02T02:11:15.167Z,2.6
2023-04-02T02:26:58.037Z,2.5
2023-04-02T02:42:40.614Z,2.4
2023-04-02T03:14:05.460Z,2.2
2023-04-02T03:45:30.424Z,2
2023-04-02T04:01:13.068Z,2.5
2023-04-02T04:16:55.818Z,1.8
2023-04-02T04:32:37.874Z,1.7
2023-04-02T04:48:20.226Z,1.6
2023-04-02T05:04:02.472Z,1.5
2023-04-02T05:19:45.166Z,1.5
2023-04-02T05:51:11.235Z,1.3
2023-04-02T05:52:05.647Z,1.3
2023-04-02T06:07:55.513Z,1.3
2023-04-02T06:23:31.232Z,0.9
2023-04-02T06:39:13.956Z,1.6
2023-04-02T06:54:49.807Z,1
2023-04-02T07:10:32.475Z,1
2023-04-02T07:41:58.060Z,0.9
2023-04-02T07:57:40.884Z,0.9
2023-04-02T08:13:30.432Z,0.9
2023-04-02T08:29:05.827Z,1
2023-04-02T08:44:48.056Z,1
2023-04-02T09:00:37.262Z,1.1
2023-04-02T09:16:20.020Z,1.1
2023-04-02T09:31:55.863Z,0.9
2023-04-02T10:03:20.299Z,0.8
2023-04-02T10:19:09.687Z,1
2023-04-02T10:34:45.342Z,1
2023-04-02T10:50:27.887Z,1.4
2023-04-02T11:21:52.815Z,1.1
2023-04-02T11:37:35.282Z,1.5
2023-04-02T11:53:17.953Z,1.4
2023-04-02T12:24:43.175Z,1.4
2023-04-02T12:40:25.932Z,1.3
2023-04-02T12:56:08.352Z,0.9
2023-04-02T13:11:57.877Z,1.3
2023-04-02T13:27:33.695Z,1.2
2023-04-02T13:43:16.150Z,0.9
2023-04-02T13:58:58.281Z,0.8
2023-04-02T14:14:40.915Z,0.9
2023-04-02T14:46:12.856Z,0.8
2023-04-02T15:01:55.371Z,0.7
2023-04-02T15:17:31.170Z,0.8
2023-04-02T15:49:03.729Z,0.9
2023-04-02T16:04:39.280Z,0.7
2023-04-02T16:20:22.201Z,0.8
2023-04-02T16:36:04.337Z,1.1
2023-04-02T16:51:46.566Z,0.8
2023-04-02T17:07:28.901Z,0.7
2023-04-02T17:23:11.677Z,0.9
2023-04-02T17:38:54.604Z,1.1
2023-04-02T17:54:44.311Z,1.1
2023-04-02T18:10:20.020Z,1.1
2023-04-02T18:26:02.408Z,0.9
2023-04-02T18:41:44.755Z,1.1
2023-04-02T18:57:27.690Z,0.6
2023-04-02T19:13:10.646Z,1.3
2023-04-02T19:28:52.996Z,1.2
2023-04-02T19:44:36.122Z,1.3
2023-04-02T20:00:19.301Z,1.2
2023-04-02T20:16:01.553Z,1.1
2023-04-02T20:47:33.156Z,0.9
2023-04-02T21:03:15.408Z,1.3
2023-04-02T21:18:58.193Z,1.1
2023-04-02T21:34:33.739Z,1
2023-04-02T21:50:16.394Z,1.1
2023-04-02T22:05:59.294Z,1.1
2023-04-02T22:21:42.634Z,1.1
2023-04-02T22:37:24.940Z,1.3
2023-04-02T22:53:07.164Z,1.2
2023-04-02T23:08:49.408Z,1.3
2023-04-02T23:24:39.274Z,1.6
2023-04-02T23:40:15.205Z,1.1
2023-04-02T23:56:05.217Z,1.2
